sensor_id;sensor_type;location;lat;lon;timestamp;P1;durP1;ratioP1;P2;durP2;ratioP2
19816;SDS011;68323;49.394;8.434;2023-05-01T00:00:50;14.23;;;11.30;;
19816;SDS011;68323;49.394;8.434;2023-05-01T00:03:16;18.63;;;12.37;;
19816;SDS011;68323;49.394;8.434;2023-05-01T00:05:45;15.60;;;11.50;;
19816;SDS011;68323;49.394;8.434;2023-05-01T00:08:11;14.57;;;10.73;;
19816;SDS011;68323;49.394;8.434;2023-05-01T00:10:37;12.33;;;10.43;;
19816;SDS011;68323;49.394;8.434;2023-05-01T00:13:03;14.50;;;10.20;;
19816;SDS011;68323;49.394;8.434;2023-05-01T00:15:30;11.20;;;9.10;;
19816;SDS011;68323;49.394;8.434;2023-05-01T00:17:56;11.07;;;9.40;;
19816;SDS011;68323;49.394;8.434;2023-05-01T00:20:25;12.37;;;9.30;;
19816;SDS011;68323;49.394;8.434;2023-05-01T00:22:52;13.97;;;7.90;;
19816;SDS011;68323;49.394;8.434;2023-05-01T00:25:17;9.00;;;7.20;;
19816;SDS011;68323;49.394;8.434;2023-05-01T00:27:43;9.97;;;7.20;;
19816;SDS011;68323;49.394;8.434;2023-05-01T00:30:09;11.53;;;7.20;;
19816;SDS011;68323;49.394;8.434;2023-05-01T00:32:34;11.80;;;8.20;;
19816;SDS011;68323;49.394;8.434;2023-05-01T00:35:00;12.97;;;7.83;;
19816;SDS011;68323;49.394;8.434;2023-05-01T00:37:25;12.37;;;8.03;;
19816;SDS011;68323;49.394;8.434;2023-05-01T00:39:51;11.17;;;7.77;;
19816;SDS011;68323;49.394;8.434;2023-05-01T00:42:17;11.70;;;7.70;;
19816;SDS011;68323;49.394;8.434;2023-05-01T00:44:42;11.03;;;8.87;;
19816;SDS011;68323;49.394;8.434;2023-05-01T00:47:08;10.03;;;8.57;;
19816;SDS011;68323;49.394;8.434;2023-05-01T00:49:33;11.87;;;8.80;;
19816;SDS011;68323;49.394;8.434;2023-05-01T00:51:59;12.13;;;9.37;;
19816;SDS011;68323;49.394;8.434;2023-05-01T00:54:25;12.37;;;9.00;;
19816;SDS011;68323;49.394;8.434;2023-05-01T00:56:52;12.27;;;9.30;;
19816;SDS011;68323;49.394;8.434;2023-05-01T00:59:18;9.70;;;8.57;;
19816;SDS011;68323;49.394;8.434;2023-05-01T01:01:44;10.70;;;9.20;;
19816;SDS011;68323;49.394;8.434;2023-05-01T01:04:10;12.77;;;9.43;;
19816;SDS011;68323;49.394;8.434;2023-05-01T01:06:55;13.03;;;9.57;;
19816;SDS011;68323;49.394;8.434;2023-05-01T01:09:37;10.87;;;9.47;;
19816;SDS011;68323;49.394;8.434;2023-05-01T01:14:48;10.87;;;9.50;;
19816;SDS011;68323;49.394;8.434;2023-05-01T01:18:06;12.57;;;10.23;;
19816;SDS011;68323;49.394;8.434;2023-05-01T01:25:54;12.03;;;9.50;;
19816;SDS011;68323;49.394;8.434;2023-05-01T01:31:29;10.80;;;8.67;;
19816;SDS011;68323;49.394;8.434;2023-05-01T01:34:12;9.77;;;8.50;;
19816;SDS011;68323;49.394;8.434;2023-05-01T01:42:19;11.97;;;8.73;;
19816;SDS011;68323;49.394;8.434;2023-05-01T01:44:51;9.90;;;8.23;;
19816;SDS011;68323;49.394;8.434;2023-05-01T01:47:19;14.07;;;8.30;;
19816;SDS011;68323;49.394;8.434;2023-05-01T01:49:48;11.63;;;7.70;;
19816;SDS011;68323;49.394;8.434;2023-05-01T01:52:16;9.33;;;8.03;;
19816;SDS011;68323;49.394;8.434;2023-05-01T01:54:47;9.63;;;7.80;;
19816;SDS011;68323;49.394;8.434;2023-05-01T01:57:18;9.97;;;7.50;;
19816;SDS011;68323;49.394;8.434;2023-05-01T01:59:46;8.00;;;6.90;;
19816;SDS011;68323;49.394;8.434;2023-05-01T02:02:14;8.07;;;6.93;;
19816;SDS011;68323;49.394;8.434;2023-05-01T02:04:43;11.90;;;7.70;;
19816;SDS011;68323;49.394;8.434;2023-05-01T02:07:09;9.50;;;7.80;;
19816;SDS011;68323;49.394;8.434;2023-05-01T02:09:38;12.70;;;7.07;;
19816;SDS011;68323;49.394;8.434;2023-05-01T02:12:05;12.67;;;7.47;;
19816;SDS011;68323;49.394;8.434;2023-05-01T02:14:33;9.97;;;7.70;;
19816;SDS011;68323;49.394;8.434;2023-05-01T02:16:59;8.97;;;7.93;;
19816;SDS011;68323;49.394;8.434;2023-05-01T02:19:26;10.50;;;7.53;;
19816;SDS011;68323;49.394;8.434;2023-05-01T02:21:54;9.23;;;7.00;;
19816;SDS011;68323;49.394;8.434;2023-05-01T02:24:21;9.33;;;7.20;;
19816;SDS011;68323;49.394;8.434;2023-05-01T02:26:56;10.30;;;7.70;;
19816;SDS011;68323;49.394;8.434;2023-05-01T02:29:27;8.73;;;7.63;;
19816;SDS011;68323;49.394;8.434;2023-05-01T02:31:53;10.53;;;6.97;;
19816;SDS011;68323;49.394;8.434;2023-05-01T02:34:19;8.67;;;7.63;;
19816;SDS011;68323;49.394;8.434;2023-05-01T02:36:44;9.63;;;7.17;;
19816;SDS011;68323;49.394;8.434;2023-05-01T02:39:10;9.93;;;7.37;;
19816;SDS011;68323;49.394;8.434;2023-05-01T02:41:36;8.27;;;7.00;;
19816;SDS011;68323;49.394;8.434;2023-05-01T02:44:04;8.73;;;7.00;;
19816;SDS011;68323;49.394;8.434;2023-05-01T02:46:34;10.50;;;6.53;;
19816;SDS011;68323;49.394;8.434;2023-05-01T02:49:01;8.97;;;6.57;;
19816;SDS011;68323;49.394;8.434;2023-05-01T02:51:28;11.13;;;7.20;;
19816;SDS011;68323;49.394;8.434;2023-05-01T02:53:55;7.67;;;6.20;;
19816;SDS011;68323;49.394;8.434;2023-05-01T02:56:23;7.57;;;6.73;;
19816;SDS011;68323;49.394;8.434;2023-05-01T02:58:51;8.40;;;7.20;;
19816;SDS011;68323;49.394;8.434;2023-05-01T03:01:17;8.60;;;6.90;;
19816;SDS011;68323;49.394;8.434;2023-05-01T03:03:44;9.53;;;7.17;;
19816;SDS011;68323;49.394;8.434;2023-05-01T03:06:10;11.53;;;7.87;;
19816;SDS011;68323;49.394;8.434;2023-05-01T03:08:35;11.37;;;7.43;;
19816;SDS011;68323;49.394;8.434;2023-05-01T03:11:07;10.47;;;8.30;;
19816;SDS011;68323;49.394;8.434;2023-05-01T03:13:33;10.00;;;7.63;;
19816;SDS011;68323;49.394;8.434;2023-05-01T03:15:59;9.67;;;7.80;;
19816;SDS011;68323;49.394;8.434;2023-05-01T03:18:25;10.93;;;7.33;;
19816;SDS011;68323;49.394;8.434;2023-05-01T03:20:51;10.23;;;7.90;;
19816;SDS011;68323;49.394;8.434;2023-05-01T03:23:17;11.03;;;8.20;;
19816;SDS011;68323;49.394;8.434;2023-05-01T03:25:43;13.13;;;8.30;;
19816;SDS011;68323;49.394;8.434;2023-05-01T03:28:09;9.97;;;7.60;;
19816;SDS011;68323;49.394;8.434;2023-05-01T03:30:35;10.73;;;8.10;;
19816;SDS011;68323;49.394;8.434;2023-05-01T03:33:00;12.60;;;7.90;;
19816;SDS011;68323;49.394;8.434;2023-05-01T03:35:26;10.17;;;7.93;;
19816;SDS011;68323;49.394;8.434;2023-05-01T03:37:52;10.43;;;7.53;;
19816;SDS011;68323;49.394;8.434;2023-05-01T03:40:17;8.70;;;7.80;;
19816;SDS011;68323;49.394;8.434;2023-05-01T03:42:43;9.03;;;7.80;;
19816;SDS011;68323;49.394;8.434;2023-05-01T03:45:09;9.43;;;7.23;;
19816;SDS011;68323;49.394;8.434;2023-05-01T03:47:35;9.13;;;7.60;;
19816;SDS011;68323;49.394;8.434;2023-05-01T03:50:00;9.30;;;7.30;;
19816;SDS011;68323;49.394;8.434;2023-05-01T03:52:26;9.47;;;7.67;;
19816;SDS011;68323;49.394;8.434;2023-05-01T03:54:52;9.63;;;7.83;;
19816;SDS011;68323;49.394;8.434;2023-05-01T03:57:17;8.73;;;7.47;;
19816;SDS011;68323;49.394;8.434;2023-05-01T03:59:45;9.17;;;7.63;;
19816;SDS011;68323;49.394;8.434;2023-05-01T04:02:11;10.00;;;7.93;;
19816;SDS011;68323;49.394;8.434;2023-05-01T04:04:36;10.43;;;7.57;;
19816;SDS011;68323;49.394;8.434;2023-05-01T04:07:02;9.57;;;7.30;;
19816;SDS011;68323;49.394;8.434;2023-05-01T04:09:28;9.90;;;7.47;;
19816;SDS011;68323;49.394;8.434;2023-05-01T04:11:54;8.33;;;7.17;;
19816;SDS011;68323;49.394;8.434;2023-05-01T04:14:20;9.10;;;7.47;;
19816;SDS011;68323;49.394;8.434;2023-05-01T04:16:45;9.27;;;7.23;;
19816;SDS011;68323;49.394;8.434;2023-05-01T04:19:11;8.27;;;7.20;;
19816;SDS011;68323;49.394;8.434;2023-05-01T04:21:37;8.63;;;6.90;;
19816;SDS011;68323;49.394;8.434;2023-05-01T04:24:03;8.97;;;6.87;;
19816;SDS011;68323;49.394;8.434;2023-05-01T04:26:28;7.43;;;6.63;;
19816;SDS011;68323;49.394;8.434;2023-05-01T04:28:54;8.10;;;6.97;;
19816;SDS011;68323;49.394;8.434;2023-05-01T04:31:20;10.50;;;7.00;;
19816;SDS011;68323;49.394;8.434;2023-05-01T04:33:45;9.50;;;6.63;;
19816;SDS011;68323;49.394;8.434;2023-05-01T04:36:11;7.53;;;6.60;;
19816;SDS011;68323;49.394;8.434;2023-05-01T04:38:36;8.60;;;6.70;;
19816;SDS011;68323;49.394;8.434;2023-05-01T04:41:03;8.60;;;6.90;;
19816;SDS011;68323;49.394;8.434;2023-05-01T04:43:30;7.80;;;7.00;;
19816;SDS011;68323;49.394;8.434;2023-05-01T04:45:55;12.23;;;6.73;;
19816;SDS011;68323;49.394;8.434;2023-05-01T04:48:21;7.40;;;6.60;;
19816;SDS011;68323;49.394;8.434;2023-05-01T04:50:46;9.77;;;6.70;;
19816;SDS011;68323;49.394;8.434;2023-05-01T04:53:12;10.40;;;6.73;;
19816;SDS011;68323;49.394;8.434;2023-05-01T04:55:38;14.50;;;6.77;;
19816;SDS011;68323;49.394;8.434;2023-05-01T04:58:04;20.80;;;6.67;;
19816;SDS011;68323;49.394;8.434;2023-05-01T05:00:29;10.43;;;6.87;;
19816;SDS011;68323;49.394;8.434;2023-05-01T05:02:55;9.70;;;6.20;;
19816;SDS011;68323;49.394;8.434;2023-05-01T05:05:21;7.37;;;5.90;;
19816;SDS011;68323;49.394;8.434;2023-05-01T05:07:46;8.80;;;6.33;;
19816;SDS011;68323;49.394;8.434;2023-05-01T05:10:12;8.50;;;6.13;;
19816;SDS011;68323;49.394;8.434;2023-05-01T05:12:38;6.77;;;5.93;;
19816;SDS011;68323;49.394;8.434;2023-05-01T05:15:03;7.27;;;5.70;;
19816;SDS011;68323;49.394;8.434;2023-05-01T05:17:29;6.73;;;5.70;;
19816;SDS011;68323;49.394;8.434;2023-05-01T05:19:55;9.70;;;6.03;;
19816;SDS011;68323;49.394;8.434;2023-05-01T05:22:20;10.40;;;5.73;;
19816;SDS011;68323;49.394;8.434;2023-05-01T05:24:46;9.17;;;5.07;;
19816;SDS011;68323;49.394;8.434;2023-05-01T05:27:17;7.17;;;5.17;;
19816;SDS011;68323;49.394;8.434;2023-05-01T05:29:43;7.10;;;4.93;;
19816;SDS011;68323;49.394;8.434;2023-05-01T05:32:08;7.20;;;4.97;;
19816;SDS011;68323;49.394;8.434;2023-05-01T05:34:34;6.93;;;4.57;;
19816;SDS011;68323;49.394;8.434;2023-05-01T05:36:59;7.67;;;4.40;;
19816;SDS011;68323;49.394;8.434;2023-05-01T05:39:25;5.40;;;4.40;;
19816;SDS011;68323;49.394;8.434;2023-05-01T05:41:51;5.87;;;4.27;;
19816;SDS011;68323;49.394;8.434;2023-05-01T05:44:17;6.73;;;5.10;;
19816;SDS011;68323;49.394;8.434;2023-05-01T05:46:43;8.67;;;4.93;;
19816;SDS011;68323;49.394;8.434;2023-05-01T05:49:09;8.57;;;4.30;;
19816;SDS011;68323;49.394;8.434;2023-05-01T05:51:35;8.47;;;4.93;;
19816;SDS011;68323;49.394;8.434;2023-05-01T05:54:00;6.43;;;5.10;;
19816;SDS011;68323;49.394;8.434;2023-05-01T05:56:26;7.50;;;4.93;;
19816;SDS011;68323;49.394;8.434;2023-05-01T05:58:51;5.90;;;4.57;;
19816;SDS011;68323;49.394;8.434;2023-05-01T06:01:17;6.07;;;4.80;;
19816;SDS011;68323;49.394;8.434;2023-05-01T06:03:43;7.87;;;4.83;;
19816;SDS011;68323;49.394;8.434;2023-05-01T06:06:08;230.80;;;12.97;;
19816;SDS011;68323;49.394;8.434;2023-05-01T06:08:34;10.87;;;4.90;;
19816;SDS011;68323;49.394;8.434;2023-05-01T06:11:01;6.37;;;4.33;;
19816;SDS011;68323;49.394;8.434;2023-05-01T06:13:27;8.77;;;4.70;;
19816;SDS011;68323;49.394;8.434;2023-05-01T06:15:52;6.10;;;4.13;;
19816;SDS011;68323;49.394;8.434;2023-05-01T06:18:18;7.10;;;4.17;;
19816;SDS011;68323;49.394;8.434;2023-05-01T06:20:44;6.67;;;4.10;;
19816;SDS011;68323;49.394;8.434;2023-05-01T06:23:11;7.03;;;4.37;;
19816;SDS011;68323;49.394;8.434;2023-05-01T06:25:37;8.17;;;4.30;;
19816;SDS011;68323;49.394;8.434;2023-05-01T06:28:03;9.53;;;4.40;;
19816;SDS011;68323;49.394;8.434;2023-05-01T06:30:29;6.73;;;4.90;;
19816;SDS011;68323;49.394;8.434;2023-05-01T06:32:55;7.13;;;4.20;;
19816;SDS011;68323;49.394;8.434;2023-05-01T06:35:20;4.67;;;4.10;;
19816;SDS011;68323;49.394;8.434;2023-05-01T06:37:46;7.03;;;4.60;;
19816;SDS011;68323;49.394;8.434;2023-05-01T06:40:12;6.70;;;4.90;;
19816;SDS011;68323;49.394;8.434;2023-05-01T06:42:38;6.67;;;4.63;;
19816;SDS011;68323;49.394;8.434;2023-05-01T06:45:04;6.73;;;4.80;;
19816;SDS011;68323;49.394;8.434;2023-05-01T06:47:31;7.20;;;5.07;;
19816;SDS011;68323;49.394;8.434;2023-05-01T06:49:57;7.57;;;4.43;;
19816;SDS011;68323;49.394;8.434;2023-05-01T06:52:23;7.37;;;5.17;;
19816;SDS011;68323;49.394;8.434;2023-05-01T06:54:49;7.00;;;4.87;;
19816;SDS011;68323;49.394;8.434;2023-05-01T06:57:14;7.50;;;5.03;;
19816;SDS011;68323;49.394;8.434;2023-05-01T06:59:40;8.07;;;5.37;;
19816;SDS011;68323;49.394;8.434;2023-05-01T07:02:05;8.00;;;5.60;;
19816;SDS011;68323;49.394;8.434;2023-05-01T07:04:31;9.27;;;6.03;;
19816;SDS011;68323;49.394;8.434;2023-05-01T07:06:57;8.93;;;6.03;;
19816;SDS011;68323;49.394;8.434;2023-05-01T07:09:22;10.47;;;6.00;;
19816;SDS011;68323;49.394;8.434;2023-05-01T07:11:48;8.73;;;5.70;;
19816;SDS011;68323;49.394;8.434;2023-05-01T07:14:14;8.33;;;6.10;;
19816;SDS011;68323;49.394;8.434;2023-05-01T07:16:39;10.07;;;5.87;;
19816;SDS011;68323;49.394;8.434;2023-05-01T07:19:05;6.27;;;5.37;;
19816;SDS011;68323;49.394;8.434;2023-05-01T07:21:30;7.20;;;5.27;;
19816;SDS011;68323;49.394;8.434;2023-05-01T07:23:56;8.27;;;5.47;;
19816;SDS011;68323;49.394;8.434;2023-05-01T07:26:23;8.63;;;5.53;;
19816;SDS011;68323;49.394;8.434;2023-05-01T07:28:50;7.83;;;5.53;;
19816;SDS011;68323;49.394;8.434;2023-05-01T07:31:16;9.63;;;5.43;;
19816;SDS011;68323;49.394;8.434;2023-05-01T07:33:42;8.60;;;5.83;;
19816;SDS011;68323;49.394;8.434;2023-05-01T07:36:07;8.90;;;5.60;;
19816;SDS011;68323;49.394;8.434;2023-05-01T07:38:33;9.30;;;5.57;;
19816;SDS011;68323;49.394;8.434;2023-05-01T07:40:58;8.57;;;5.13;;
19816;SDS011;68323;49.394;8.434;2023-05-01T07:43:24;7.67;;;5.77;;
19816;SDS011;68323;49.394;8.434;2023-05-01T07:45:56;8.57;;;5.50;;
19816;SDS011;68323;49.394;8.434;2023-05-01T07:48:24;6.03;;;5.07;;
19816;SDS011;68323;49.394;8.434;2023-05-01T07:50:50;8.70;;;4.97;;
19816;SDS011;68323;49.394;8.434;2023-05-01T07:53:15;5.97;;;5.20;;
19816;SDS011;68323;49.394;8.434;2023-05-01T07:55:41;7.00;;;5.20;;
19816;SDS011;68323;49.394;8.434;2023-05-01T07:58:07;7.00;;;5.07;;
19816;SDS011;68323;49.394;8.434;2023-05-01T08:00:32;9.83;;;5.87;;
19816;SDS011;68323;49.394;8.434;2023-05-01T08:02:59;8.80;;;5.10;;
19816;SDS011;68323;49.394;8.434;2023-05-01T08:05:25;6.90;;;4.93;;
19816;SDS011;68323;49.394;8.434;2023-05-01T08:07:50;8.07;;;5.10;;
19816;SDS011;68323;49.394;8.434;2023-05-01T08:10:16;9.50;;;4.90;;
19816;SDS011;68323;49.394;8.434;2023-05-01T08:12:41;6.37;;;4.77;;
19816;SDS011;68323;49.394;8.434;2023-05-01T08:15:07;7.37;;;4.30;;
19816;SDS011;68323;49.394;8.434;2023-05-01T08:17:36;6.13;;;4.13;;
19816;SDS011;68323;49.394;8.434;2023-05-01T08:20:02;4.70;;;4.10;;
19816;SDS011;68323;49.394;8.434;2023-05-01T08:22:28;6.27;;;4.10;;
19816;SDS011;68323;49.394;8.434;2023-05-01T08:24:53;6.23;;;3.80;;
19816;SDS011;68323;49.394;8.434;2023-05-01T08:27:19;9.70;;;4.23;;
19816;SDS011;68323;49.394;8.434;2023-05-01T08:29:45;7.18;;;4.22;;
19816;SDS011;68323;49.394;8.434;2023-05-01T08:32:10;5.18;;;4.20;;
19816;SDS011;68323;49.394;8.434;2023-05-01T08:34:36;4.78;;;3.50;;
19816;SDS011;68323;49.394;8.434;2023-05-01T08:37:02;5.53;;;3.80;;
19816;SDS011;68323;49.394;8.434;2023-05-01T08:39:27;6.38;;;3.80;;
19816;SDS011;68323;49.394;8.434;2023-05-01T08:41:53;4.95;;;3.50;;
19816;SDS011;68323;49.394;8.434;2023-05-01T08:44:19;5.85;;;3.90;;
19816;SDS011;68323;49.394;8.434;2023-05-01T08:46:47;6.33;;;3.70;;
19816;SDS011;68323;49.394;8.434;2023-05-01T08:49:21;5.33;;;3.70;;
19816;SDS011;68323;49.394;8.434;2023-05-01T08:51:47;4.80;;;3.90;;
19816;SDS011;68323;49.394;8.434;2023-05-01T08:54:16;6.43;;;3.97;;
19816;SDS011;68323;49.394;8.434;2023-05-01T08:56:44;4.25;;;3.30;;
19816;SDS011;68323;49.394;8.434;2023-05-01T08:59:11;4.80;;;3.40;;
19816;SDS011;68323;49.394;8.434;2023-05-01T09:01:38;3.67;;;3.15;;
19816;SDS011;68323;49.394;8.434;2023-05-01T09:04:05;4.78;;;3.60;;
19816;SDS011;68323;49.394;8.434;2023-05-01T09:06:33;4.53;;;3.58;;
19816;SDS011;68323;49.394;8.434;2023-05-01T09:08:59;4.82;;;3.30;;
19816;SDS011;68323;49.394;8.434;2023-05-01T09:11:25;4.10;;;3.10;;
19816;SDS011;68323;49.394;8.434;2023-05-01T09:13:51;3.92;;;3.40;;
19816;SDS011;68323;49.394;8.434;2023-05-01T09:16:18;3.90;;;3.20;;
19816;SDS011;68323;49.394;8.434;2023-05-01T09:18:44;5.55;;;3.50;;
19816;SDS011;68323;49.394;8.434;2023-05-01T09:21:10;3.70;;;3.25;;
19816;SDS011;68323;49.394;8.434;2023-05-01T09:23:36;3.78;;;3.15;;
19816;SDS011;68323;49.394;8.434;2023-05-01T09:26:08;5.00;;;3.45;;
19816;SDS011;68323;49.394;8.434;2023-05-01T09:28:41;5.25;;;3.67;;
19816;SDS011;68323;49.394;8.434;2023-05-01T09:31:22;4.57;;;3.55;;
19816;SDS011;68323;49.394;8.434;2023-05-01T09:33:54;5.25;;;3.63;;
19816;SDS011;68323;49.394;8.434;2023-05-01T09:36:22;5.38;;;3.65;;
19816;SDS011;68323;49.394;8.434;2023-05-01T09:38:52;5.15;;;3.20;;
19816;SDS011;68323;49.394;8.434;2023-05-01T09:41:18;4.80;;;3.33;;
19816;SDS011;68323;49.394;8.434;2023-05-01T09:43:48;5.38;;;3.60;;
19816;SDS011;68323;49.394;8.434;2023-05-01T09:46:18;5.65;;;3.33;;
19816;SDS011;68323;49.394;8.434;2023-05-01T09:48:54;4.93;;;3.42;;
19816;SDS011;68323;49.394;8.434;2023-05-01T09:51:26;4.50;;;3.40;;
19816;SDS011;68323;49.394;8.434;2023-05-01T09:53:53;4.90;;;3.72;;
19816;SDS011;68323;49.394;8.434;2023-05-01T09:56:21;4.93;;;3.40;;
19816;SDS011;68323;49.394;8.434;2023-05-01T09:58:48;4.45;;;3.47;;
19816;SDS011;68323;49.394;8.434;2023-05-01T10:01:15;3.63;;;3.28;;
19816;SDS011;68323;49.394;8.434;2023-05-01T10:03:41;5.03;;;3.30;;
19816;SDS011;68323;49.394;8.434;2023-05-01T10:06:08;5.30;;;3.58;;
19816;SDS011;68323;49.394;8.434;2023-05-01T10:08:44;5.60;;;3.30;;
19816;SDS011;68323;49.394;8.434;2023-05-01T10:11:10;3.92;;;3.50;;
19816;SDS011;68323;49.394;8.434;2023-05-01T10:13:36;4.88;;;3.55;;
19816;SDS011;68323;49.394;8.434;2023-05-01T10:16:01;4.70;;;3.70;;
19816;SDS011;68323;49.394;8.434;2023-05-01T10:18:32;4.72;;;3.85;;
19816;SDS011;68323;49.394;8.434;2023-05-01T10:20:58;4.20;;;3.67;;
19816;SDS011;68323;49.394;8.434;2023-05-01T10:23:24;4.85;;;3.67;;
19816;SDS011;68323;49.394;8.434;2023-05-01T10:25:51;5.00;;;4.13;;
19816;SDS011;68323;49.394;8.434;2023-05-01T10:28:18;6.15;;;4.10;;
19816;SDS011;68323;49.394;8.434;2023-05-01T10:30:45;4.25;;;3.58;;
19816;SDS011;68323;49.394;8.434;2023-05-01T10:33:14;4.07;;;3.53;;
19816;SDS011;68323;49.394;8.434;2023-05-01T10:35:40;6.30;;;3.80;;
19816;SDS011;68323;49.394;8.434;2023-05-01T10:38:18;4.53;;;4.10;;
19816;SDS011;68323;49.394;8.434;2023-05-01T10:40:48;8.18;;;4.20;;
19816;SDS011;68323;49.394;8.434;2023-05-01T10:43:25;5.10;;;4.10;;
19816;SDS011;68323;49.394;8.434;2023-05-01T10:46:25;4.93;;;4.10;;
19816;SDS011;68323;49.394;8.434;2023-05-01T10:53:44;7.03;;;4.30;;
19816;SDS011;68323;49.394;8.434;2023-05-01T11:04:04;5.93;;;4.20;;
19816;SDS011;68323;49.394;8.434;2023-05-01T11:12:02;6.80;;;4.40;;
19816;SDS011;68323;49.394;8.434;2023-05-01T11:20:05;5.63;;;3.80;;
19816;SDS011;68323;49.394;8.434;2023-05-01T11:22:32;5.43;;;4.20;;
19816;SDS011;68323;49.394;8.434;2023-05-01T11:24:59;5.65;;;4.50;;
19816;SDS011;68323;49.394;8.434;2023-05-01T11:27:25;6.57;;;4.35;;
19816;SDS011;68323;49.394;8.434;2023-05-01T11:29:52;5.72;;;3.88;;
19816;SDS011;68323;49.394;8.434;2023-05-01T11:32:19;5.88;;;3.80;;
19816;SDS011;68323;49.394;8.434;2023-05-01T11:34:51;5.70;;;3.90;;
19816;SDS011;68323;49.394;8.434;2023-05-01T11:37:18;5.05;;;4.03;;
19816;SDS011;68323;49.394;8.434;2023-05-01T11:39:50;5.00;;;4.10;;
19816;SDS011;68323;49.394;8.434;2023-05-01T11:42:19;5.20;;;4.10;;
19816;SDS011;68323;49.394;8.434;2023-05-01T11:45:05;7.05;;;4.32;;
19816;SDS011;68323;49.394;8.434;2023-05-01T11:47:37;7.30;;;4.22;;
19816;SDS011;68323;49.394;8.434;2023-05-01T11:50:06;6.07;;;4.40;;
19816;SDS011;68323;49.394;8.434;2023-05-01T11:52:43;4.45;;;4.03;;
19816;SDS011;68323;49.394;8.434;2023-05-01T11:55:10;5.15;;;4.10;;
19816;SDS011;68323;49.394;8.434;2023-05-01T11:57:49;6.78;;;4.25;;
19816;SDS011;68323;49.394;8.434;2023-05-01T12:00:29;4.75;;;3.97;;
19816;SDS011;68323;49.394;8.434;2023-05-01T12:05:29;7.38;;;4.05;;
19816;SDS011;68323;49.394;8.434;2023-05-01T12:08:40;4.57;;;3.60;;
19816;SDS011;68323;49.394;8.434;2023-05-01T12:10:46;7.10;;;4.35;;
19816;SDS011;68323;49.394;8.434;2023-05-01T12:13:22;5.63;;;3.90;;
19816;SDS011;68323;49.394;8.434;2023-05-01T12:15:49;5.03;;;4.45;;
19816;SDS011;68323;49.394;8.434;2023-05-01T12:18:17;9.23;;;6.22;;
19816;SDS011;68323;49.394;8.434;2023-05-01T12:20:44;6.25;;;4.80;;
19816;SDS011;68323;49.394;8.434;2023-05-01T12:23:12;5.10;;;3.92;;
19816;SDS011;68323;49.394;8.434;2023-05-01T12:25:40;5.18;;;3.83;;
19816;SDS011;68323;49.394;8.434;2023-05-01T12:28:16;7.65;;;3.97;;
19816;SDS011;68323;49.394;8.434;2023-05-01T12:30:44;7.00;;;4.40;;
19816;SDS011;68323;49.394;8.434;2023-05-01T12:33:15;4.43;;;4.03;;
19816;SDS011;68323;49.394;8.434;2023-05-01T12:35:43;5.10;;;3.97;;
19816;SDS011;68323;49.394;8.434;2023-05-01T12:40:36;4.20;;;3.78;;
19816;SDS011;68323;49.394;8.434;2023-05-01T12:43:03;4.43;;;3.83;;
19816;SDS011;68323;49.394;8.434;2023-05-01T12:45:28;5.25;;;4.10;;
19816;SDS011;68323;49.394;8.434;2023-05-01T12:47:54;4.35;;;3.95;;
19816;SDS011;68323;49.394;8.434;2023-05-01T12:50:19;6.00;;;4.03;;
19816;SDS011;68323;49.394;8.434;2023-05-01T12:52:45;5.43;;;4.47;;
19816;SDS011;68323;49.394;8.434;2023-05-01T12:55:12;6.22;;;5.00;;
19816;SDS011;68323;49.394;8.434;2023-05-01T12:57:50;4.45;;;4.05;;
19816;SDS011;68323;49.394;8.434;2023-05-01T13:00:17;6.70;;;4.30;;
19816;SDS011;68323;49.394;8.434;2023-05-01T13:02:43;5.65;;;4.30;;
19816;SDS011;68323;49.394;8.434;2023-05-01T13:05:09;8.13;;;5.65;;
19816;SDS011;68323;49.394;8.434;2023-05-01T13:07:37;4.80;;;4.40;;
19816;SDS011;68323;49.394;8.434;2023-05-01T13:10:05;5.63;;;4.30;;
19816;SDS011;68323;49.394;8.434;2023-05-01T13:12:32;9.55;;;4.82;;
19816;SDS011;68323;49.394;8.434;2023-05-01T13:14:58;5.78;;;4.70;;
19816;SDS011;68323;49.394;8.434;2023-05-01T13:17:30;5.50;;;4.40;;
19816;SDS011;68323;49.394;8.434;2023-05-01T13:20:02;4.50;;;3.90;;
19816;SDS011;68323;49.394;8.434;2023-05-01T13:22:33;5.60;;;4.10;;
19816;SDS011;68323;49.394;8.434;2023-05-01T13:25:01;5.13;;;3.95;;
19816;SDS011;68323;49.394;8.434;2023-05-01T13:27:52;4.82;;;4.03;;
19816;SDS011;68323;49.394;8.434;2023-05-01T13:30:19;5.20;;;4.32;;
19816;SDS011;68323;49.394;8.434;2023-05-01T13:32:48;6.60;;;4.65;;
19816;SDS011;68323;49.394;8.434;2023-05-01T13:35:23;6.10;;;4.10;;
19816;SDS011;68323;49.394;8.434;2023-05-01T13:37:50;5.28;;;4.10;;
19816;SDS011;68323;49.394;8.434;2023-05-01T13:40:16;5.65;;;4.22;;
19816;SDS011;68323;49.394;8.434;2023-05-01T13:42:43;5.15;;;4.65;;
19816;SDS011;68323;49.394;8.434;2023-05-01T13:45:08;6.43;;;4.68;;
19816;SDS011;68323;49.394;8.434;2023-05-01T13:47:35;6.85;;;4.70;;
19816;SDS011;68323;49.394;8.434;2023-05-01T13:50:05;7.35;;;4.68;;
19816;SDS011;68323;49.394;8.434;2023-05-01T13:52:41;6.85;;;4.90;;
19816;SDS011;68323;49.394;8.434;2023-05-01T13:55:08;7.65;;;4.60;;
19816;SDS011;68323;49.394;8.434;2023-05-01T13:57:38;4.82;;;4.40;;
19816;SDS011;68323;49.394;8.434;2023-05-01T14:00:06;5.07;;;4.57;;
19816;SDS011;68323;49.394;8.434;2023-05-01T14:02:36;5.75;;;4.65;;
19816;SDS011;68323;49.394;8.434;2023-05-01T14:05:11;5.50;;;4.38;;
19816;SDS011;68323;49.394;8.434;2023-05-01T14:07:52;6.80;;;4.50;;
19816;SDS011;68323;49.394;8.434;2023-05-01T14:10:19;7.78;;;4.85;;
19816;SDS011;68323;49.394;8.434;2023-05-01T14:12:47;4.80;;;4.30;;
19816;SDS011;68323;49.394;8.434;2023-05-01T14:15:12;6.60;;;4.60;;
19816;SDS011;68323;49.394;8.434;2023-05-01T14:17:38;5.10;;;3.75;;
19816;SDS011;68323;49.394;8.434;2023-05-01T14:20:04;6.82;;;4.25;;
19816;SDS011;68323;49.394;8.434;2023-05-01T14:25:19;6.25;;;4.32;;
19816;SDS011;68323;49.394;8.434;2023-05-01T14:27:52;7.43;;;4.50;;
19816;SDS011;68323;49.394;8.434;2023-05-01T14:30:23;5.38;;;4.40;;
19816;SDS011;68323;49.394;8.434;2023-05-01T14:33:01;4.55;;;3.90;;
19816;SDS011;68323;49.394;8.434;2023-05-01T14:35:27;4.50;;;3.70;;
19816;SDS011;68323;49.394;8.434;2023-05-01T14:37:53;6.20;;;4.47;;
19816;SDS011;68323;49.394;8.434;2023-05-01T14:40:25;4.60;;;4.10;;
19816;SDS011;68323;49.394;8.434;2023-05-01T14:42:52;4.53;;;4.10;;
19816;SDS011;68323;49.394;8.434;2023-05-01T14:45:18;4.53;;;4.10;;
19816;SDS011;68323;49.394;8.434;2023-05-01T14:47:45;4.20;;;3.60;;
19816;SDS011;68323;49.394;8.434;2023-05-01T14:50:13;3.75;;;2.90;;
19816;SDS011;68323;49.394;8.434;2023-05-01T14:52:47;4.88;;;3.50;;
19816;SDS011;68323;49.394;8.434;2023-05-01T14:55:23;7.22;;;4.00;;
19816;SDS011;68323;49.394;8.434;2023-05-01T14:57:53;4.13;;;3.08;;
19816;SDS011;68323;49.394;8.434;2023-05-01T15:00:21;5.22;;;2.75;;
19816;SDS011;68323;49.394;8.434;2023-05-01T15:02:47;3.75;;;3.08;;
19816;SDS011;68323;49.394;8.434;2023-05-01T15:05:13;3.63;;;2.55;;
19816;SDS011;68323;49.394;8.434;2023-05-01T15:07:39;3.33;;;2.65;;
19816;SDS011;68323;49.394;8.434;2023-05-01T15:10:06;3.13;;;2.47;;
19816;SDS011;68323;49.394;8.434;2023-05-01T15:12:32;3.90;;;2.80;;
19816;SDS011;68323;49.394;8.434;2023-05-01T15:14:57;2.85;;;2.50;;
19816;SDS011;68323;49.394;8.434;2023-05-01T15:17:23;4.00;;;2.90;;
19816;SDS011;68323;49.394;8.434;2023-05-01T15:19:48;6.20;;;2.85;;
19816;SDS011;68323;49.394;8.434;2023-05-01T15:22:14;4.25;;;3.13;;
19816;SDS011;68323;49.394;8.434;2023-05-01T15:24:39;3.20;;;2.90;;
19816;SDS011;68323;49.394;8.434;2023-05-01T15:27:05;4.40;;;3.20;;
19816;SDS011;68323;49.394;8.434;2023-05-01T15:29:31;4.45;;;3.70;;
19816;SDS011;68323;49.394;8.434;2023-05-01T15:31:57;6.80;;;4.43;;
19816;SDS011;68323;49.394;8.434;2023-05-01T15:34:23;5.70;;;4.13;;
19816;SDS011;68323;49.394;8.434;2023-05-01T15:36:49;4.75;;;3.00;;